Time;durP1;ratioP1;P1;durP2;ratioP2;P2;SDS_P1;SDS_P2;PMS_P1;PMS_P2;Temp;Humidity;BMP_temperature;BMP_pressure;BME280_temperature;BME280_humidity;BME280_pressure;Samples;Min_cycle;Max_cycle;Signal;HPM_P1;HPM_P2
2023/05/12 00:01:40;;;;;;;3.83;2.15;;;12.70;97.30;;;;;;6310496;22;20026;-84
2023/05/12 00:04:08;;;;;;;5.38;2.70;;;12.70;97.30;;;;;;6285317;22;20018;-84
2023/05/12 00:06:36;;;;;;;4.82;2.38;;;12.70;97.30;;;;;;6310941;22;20023;-83
2023/05/12 00:09:08;;;;;;;4.18;2.30;;;12.70;97.30;;;;;;6312227;22;20021;-83
2023/05/12 00:11:38;;;;;;;5.32;2.97;;;12.60;97.30;;;;;;6260595;22;20038;-82
2023/05/12 00:14:06;;;;;;;5.05;2.65;;;12.70;97.40;;;;;;6339024;22;20102;-83
2023/05/12 00:16:38;;;;;;;5.70;2.92;;;12.60;97.30;;;;;;6317133;22;20015;-84
2023/05/12 00:19:21;;;;;;;5.30;2.90;;;12.70;97.40;;;;;;6318671;22;20030;-84
2023/05/12 00:21:48;;;;;;;5.93;2.58;;;12.70;97.30;;;;;;6293914;22;20014;-84
2023/05/12 00:24:15;;;;;;;6.68;3.15;;;12.60;97.40;;;;;;6318535;22;20063;-84
2023/05/12 00:26:45;;;;;;;5.45;2.97;;;12.60;97.40;;;;;;6318889;22;20040;-83
2023/05/12 00:29:15;;;;;;;6.00;2.95;;;12.60;97.40;;;;;;6344446;22;20018;-84
2023/05/12 00:31:43;;;;;;;5.20;2.90;;;12.60;97.50;;;;;;6318452;22;20347;-84
2023/05/12 00:34:10;;;;;;;5.93;2.83;;;12.50;97.50;;;;;;6344446;22;20015;-84
2023/05/12 00:36:39;;;;;;;5.20;2.53;;;12.50;97.50;;;;;;6318507;22;20032;-84
2023/05/12 00:39:06;;;;;;;3.40;1.80;;;12.50;97.60;;;;;;6318494;22;20022;-84
2023/05/12 00:41:34;;;;;;;5.28;1.92;;;12.50;97.60;;;;;;6318670;22;20018;-84
2023/05/12 00:44:04;;;;;;;4.63;1.88;;;12.50;97.60;;;;;;6318638;22;20026;-84
2023/05/12 00:46:31;;;;;;;3.78;1.73;;;12.60;97.70;;;;;;6293668;22;20018;-84
2023/05/12 00:48:59;;;;;;;4.05;2.00;;;12.60;97.60;;;;;;6318759;22;20021;-85
2023/05/12 00:51:29;;;;;;;4.30;1.95;;;12.60;97.60;;;;;;6318294;22;20097;-85
2023/05/12 00:54:01;;;;;;;3.85;1.80;;;12.60;97.70;;;;;;6292759;22;20097;-85
2023/05/12 00:56:28;;;;;;;3.83;1.65;;;12.50;97.60;;;;;;6318509;22;20015;-85
2023/05/12 00:59:13;;;;;;;3.40;1.48;;;12.50;97.70;;;;;;6293713;22;20026;-85
2023/05/12 01:01:44;;;;;;;2.88;1.27;;;12.50;97.70;;;;;;6295605;22;20091;-85
2023/05/12 01:04:17;;;;;;;3.40;1.40;;;12.50;97.70;;;;;;6344289;22;20443;-85
2023/05/12 01:06:55;;;;;;;2.20;0.90;;;12.40;97.70;;;;;;6293964;22;20072;-84
2023/05/12 01:09:26;;;;;;;2.55;1.15;;;12.40;97.80;;;;;;6318087;22;20014;-84
2023/05/12 01:11:57;;;;;;;2.08;0.90;;;12.30;97.80;;;;;;6318739;22;20026;-84
2023/05/12 01:14:24;;;;;;;2.10;0.80;;;12.40;97.90;;;;;;6318063;22;20046;-84
2023/05/12 01:16:58;;;;;;;1.63;0.73;;;12.40;97.90;;;;;;6318537;22;20226;-85
2023/05/12 01:19:50;;;;;;;2.50;0.88;;;12.40;97.90;;;;;;6318889;22;20097;-85
2023/05/12 01:22:25;;;;;;;1.08;0.50;;;12.40;97.90;;;;;;6318345;22;20018;-85
2023/05/12 01:25:03;;;;;;;2.38;0.70;;;12.40;97.90;;;;;;6317717;22;20049;-84
2023/05/12 01:27:32;;;;;;;1.92;0.70;;;12.30;97.90;;;;;;6291453;22;20042;-84
2023/05/12 01:30:03;;;;;;;1.52;0.60;;;12.30;98.00;;;;;;6318683;22;20289;-84
2023/05/12 01:32:34;;;;;;;2.72;0.68;;;12.30;98.00;;;;;;6318918;22;20097;-85
2023/05/12 01:35:05;;;;;;;2.30;0.40;;;12.30;98.00;;;;;;6318180;22;20018;-84
2023/05/12 01:37:34;;;;;;;2.08;0.75;;;12.30;98.00;;;;;;6318408;22;20018;-84
2023/05/12 01:40:04;;;;;;;1.58;0.50;;;12.20;98.00;;;;;;6317999;22;20019;-85
2023/05/12 01:42:34;;;;;;;1.38;0.40;;;12.30;98.10;;;;;;6317821;22;20022;-84
2023/05/12 01:45:01;;;;;;;2.28;0.70;;;12.30;98.10;;;;;;6317434;22;20050;-84
2023/05/12 01:47:31;;;;;;;2.67;0.55;;;12.30;98.10;;;;;;6292956;22;20018;-84
2023/05/12 01:50:04;;;;;;;2.20;0.70;;;12.30;98.10;;;;;;6318897;22;20026;-84
2023/05/12 01:52:39;;;;;;;2.67;0.90;;;12.30;98.10;;;;;;6319283;22;20064;-84
2023/05/12 01:55:10;;;;;;;2.67;1.07;;;12.30;98.20;;;;;;6293760;22;20069;-84
2023/05/12 01:57:48;;;;;;;2.60;1.10;;;12.30;98.20;;;;;;6319650;22;20260;-83
2023/05/12 02:00:16;;;;;;;2.92;1.13;;;12.30;98.20;;;;;;6292116;22;20014;-84
2023/05/12 02:02:48;;;;;;;2.13;1.15;;;12.30;98.20;;;;;;6318338;22;20071;-84
2023/05/12 02:05:16;;;;;;;4.68;1.58;;;12.30;98.20;;;;;;6317711;22;20079;-84
2023/05/12 02:07:47;;;;;;;2.80;1.15;;;12.20;98.20;;;;;;6318311;22;20079;-84
2023/05/12 02:10:17;;;;;;;3.97;1.58;;;12.20;98.20;;;;;;6291113;22;20040;-83
2023/05/12 02:12:45;;;;;;;4.82;1.73;;;12.30;98.30;;;;;;6292446;22;20025;-84
2023/05/12 02:15:13;;;;;;;3.90;1.85;;;12.30;98.30;;;;;;6317043;22;20333;-84
2023/05/12 02:17:44;;;;;;;3.40;1.45;;;12.30;98.30;;;;;;6318339;22;20018;-84
2023/05/12 02:20:15;;;;;;;3.03;1.38;;;12.30;98.30;;;;;;6318324;22;20021;-84
2023/05/12 02:22:45;;;;;;;4.13;1.60;;;12.30;98.30;;;;;;6317847;22;20033;-84
2023/05/12 02:25:17;;;;;;;5.30;2.55;;;12.30;98.30;;;;;;6317672;22;20018;-84
2023/05/12 02:27:47;;;;;;;4.75;1.85;;;12.30;98.30;;;;;;6316837;22;20040;-83
2023/05/12 02:30:16;;;;;;;5.00;1.63;;;12.30;98.30;;;;;;6292550;22;20049;-84
2023/05/12 02:32:45;;;;;;;4.43;1.88;;;12.40;98.30;;;;;;6317098;22;20018;-84
2023/05/12 02:35:15;;;;;;;6.63;2.38;;;12.40;98.30;;;;;;6316748;22;20014;-84
2023/05/12 02:37:43;;;;;;;7.85;3.45;;;12.40;98.30;;;;;;6317316;22;20021;-84
2023/05/12 02:40:11;;;;;;;6.75;3.45;;;12.40;98.30;;;;;;6291300;22;20067;-84
2023/05/12 02:42:39;;;;;;;6.00;2.72;;;12.40;98.30;;;;;;6316944;22;20333;-84
2023/05/12 02:45:10;;;;;;;6.10;2.90;;;12.40;98.40;;;;;;6317213;22;20014;-84
2023/05/12 02:47:40;;;;;;;6.30;2.88;;;12.40;98.30;;;;;;6292561;22;20018;-84
2023/05/12 02:50:08;;;;;;;7.72;4.03;;;12.40;98.40;;;;;;6317225;22;20024;-84
2023/05/12 02:52:36;;;;;;;7.80;3.45;;;12.40;98.40;;;;;;6317172;22;20037;-84
2023/05/12 02:55:06;;;;;;;6.90;3.15;;;12.40;98.40;;;;;;6343182;22;20064;-84
2023/05/12 02:57:36;;;;;;;9.32;3.78;;;12.40;98.40;;;;;;6316926;22;20018;-84
2023/05/12 03:00:05;;;;;;;7.38;3.67;;;12.40;98.40;;;;;;6316610;22;20022;-84
2023/05/12 03:02:38;;;;;;;8.07;3.85;;;12.40;98.40;;;;;;6317109;22;20018;-84
2023/05/12 03:05:07;;;;;;;;;;;12.50;98.40;;;;;;6317555;22;20094;-84
2023/05/12 03:07:36;;;;;;;6.43;3.38;;;12.40;98.40;;;;;;6316590;22;19921;-84
2023/05/12 03:10:03;;;;;;;8.35;4.22;;;12.40;98.40;;;;;;6316628;22;20014;-84
2023/05/12 03:12:31;;;;;;;10.02;4.63;;;12.40;98.40;;;;;;6316727;22;20019;-84
2023/05/12 03:14:58;;;;;;;10.85;5.63;;;12.50;98.40;;;;;;6316520;22;20097;-83
2023/05/12 03:17:28;;;;;;;9.88;4.45;;;12.50;98.40;;;;;;6285931;22;20019;-84
2023/05/12 03:19:55;;;;;;;10.00;4.72;;;12.50;98.40;;;;;;6285021;22;20018;-84
2023/05/12 03:22:24;;;;;;;8.27;3.97;;;12.50;98.40;;;;;;6285847;22;20027;-84
2023/05/12 03:25:04;;;;;;;8.38;4.47;;;12.50;98.40;;;;;;6287412;22;20027;-84
2023/05/12 03:27:31;;;;;;;9.73;4.15;;;12.50;98.40;;;;;;6260246;22;20101;-85
2023/05/12 03:30:03;;;;;;;10.30;5.10;;;12.60;98.40;;;;;;6285711;22;20046;-86
2023/05/12 03:32:34;;;;;;;12.18;5.22;;;12.60;98.40;;;;;;6286927;22;20023;-86
2023/05/12 03:35:01;;;;;;;11.35;5.40;;;12.60;98.40;;;;;;6311846;22;20015;-85
2023/05/12 03:37:31;;;;;;;8.25;4.18;;;12.60;98.40;;;;;;6311684;22;20372;-86
2023/05/12 03:39:58;;;;;;;10.75;5.63;;;12.60;98.40;;;;;;6286866;22;20098;-85
2023/05/12 03:42:26;;;;;;;14.07;6.15;;;12.60;98.40;;;;;;6313540;22;20027;-85
2023/05/12 03:44:58;;;;;;;10.23;5.30;;;12.60;98.40;;;;;;6312502;22;20018;-85
2023/05/12 03:47:25;;;;;;;11.98;5.30;;;12.60;98.50;;;;;;6287006;22;20506;-86
2023/05/12 03:49:55;;;;;;;14.27;6.32;;;12.70;98.50;;;;;;6314433;22;20467;-85
2023/05/12 03:52:25;;;;;;;11.57;6.35;;;12.70;98.50;;;;;;6288154;22;20021;-85
2023/05/12 03:54:52;;;;;;;16.92;8.73;;;12.70;98.50;;;;;;6313667;22;20092;-85
2023/05/12 03:57:19;;;;;;;13.23;7.10;;;12.70;98.50;;;;;;6287528;22;20072;-84
2023/05/12 03:59:47;;;;;;;12.18;7.13;;;12.70;98.50;;;;;;6287733;22;20398;-84
2023/05/12 04:02:14;;;;;;;12.13;6.78;;;12.70;98.50;;;;;;6287805;22;20022;-85
2023/05/12 04:04:41;;;;;;;15.18;7.22;;;12.70;98.50;;;;;;6288045;22;20030;-85
2023/05/12 04:07:11;;;;;;;16.80;7.75;;;12.70;98.50;;;;;;6262728;22;20050;-85
2023/05/12 04:09:38;;;;;;;15.20;7.97;;;12.80;98.50;;;;;;6287761;22;20015;-85
2023/05/12 04:12:05;;;;;;;14.88;8.05;;;12.80;98.50;;;;;;6313472;22;20015;-85
2023/05/12 04:14:42;;;;;;;13.48;7.63;;;12.80;98.50;;;;;;6288192;22;20025;-85
2023/05/12 04:17:10;;;;;;;14.13;7.85;;;12.80;98.50;;;;;;6287781;22;20440;-85
2023/05/12 04:19:37;;;;;;;16.92;8.05;;;12.90;98.50;;;;;;6262486;22;20389;-85
2023/05/12 04:22:05;;;;;;;15.52;8.85;;;12.90;98.50;;;;;;6262211;22;20072;-84
2023/05/12 04:24:32;;;;;;;15.25;8.55;;;12.90;98.50;;;;;;6262139;22;20029;-85
2023/05/12 04:27:00;;;;;;;15.43;8.07;;;13.00;98.50;;;;;;6287183;22;20022;-85
2023/05/12 04:29:30;;;;;;;16.75;10.13;;;13.00;98.50;;;;;;6262515;22;20344;-84
2023/05/12 04:32:02;;;;;;;17.85;10.10;;;13.00;98.50;;;;;;6287877;22;20370;-85
2023/05/12 04:34:30;;;;;;;15.32;8.20;;;13.00;98.40;;;;;;6313226;22;20015;-85
2023/05/12 04:36:59;;;;;;;17.17;9.30;;;13.00;98.40;;;;;;6262563;22;20444;-85
2023/05/12 04:39:28;;;;;;;18.80;10.02;;;13.10;98.40;;;;;;6262701;22;20019;-85
2023/05/12 04:42:01;;;;;;;19.95;10.82;;;13.10;98.40;;;;;;6287570;22;20018;-85
2023/05/12 04:44:31;;;;;;;20.35;11.25;;;13.10;98.40;;;;;;6288303;22;20025;-84
2023/05/12 04:46:59;;;;;;;17.15;9.38;;;13.20;98.40;;;;;;6287233;22;20047;-85
2023/05/12 04:49:26;;;;;;;17.55;9.32;;;13.20;98.40;;;;;;6287374;22;20092;-86
2023/05/12 04:51:54;;;;;;;20.27;10.68;;;13.20;98.40;;;;;;6312821;22;20079;-84
2023/05/12 04:54:40;;;;;;;17.40;10.40;;;13.20;98.40;;;;;;6265035;22;20064;-85
2023/05/12 04:57:08;;;;;;;18.90;10.93;;;13.30;98.40;;;;;;6313161;22;20019;-85
2023/05/12 04:59:40;;;;;;;19.83;10.85;;;13.30;98.40;;;;;;6287190;22;20467;-85
2023/05/12 05:02:17;;;;;;;22.65;11.63;;;13.30;98.40;;;;;;6287872;22;20023;-84
2023/05/12 05:04:47;;;;;;;24.38;14.10;;;13.30;98.40;;;;;;6313368;22;20068;-84
2023/05/12 05:07:15;;;;;;;22.00;11.77;;;13.30;98.40;;;;;;6287120;22;20015;-84
2023/05/12 05:09:42;;;;;;;22.63;11.75;;;13.30;98.40;;;;;;6287321;22;20102;-85
2023/05/12 05:12:12;;;;;;;21.73;12.93;;;13.40;98.40;;;;;;6312481;22;20015;-85
2023/05/12 05:14:41;;;;;;;20.60;10.73;;;13.40;98.40;;;;;;6287434;22;20019;-85
2023/05/12 05:17:14;;;;;;;19.50;10.55;;;13.40;98.40;;;;;;6287471;22;20026;-84
2023/05/12 05:19:41;;;;;;;21.42;10.60;;;13.50;98.40;;;;;;6287070;22;20015;-85
2023/05/12 05:22:26;;;;;;;18.20;9.32;;;13.40;98.40;;;;;;6312595;22;20023;-84
2023/05/12 05:24:54;;;;;;;16.00;9.30;;;13.50;98.40;;;;;;6312609;22;20043;-85
2023/05/12 05:27:21;;;;;;;20.45;11.05;;;13.50;98.40;;;;;;6286724;22;20042;-84
2023/05/12 05:29:51;;;;;;;16.50;8.80;;;13.60;98.40;;;;;;6287209;22;20023;-84
2023/05/12 05:32:18;;;;;;;17.35;9.73;;;13.60;98.30;;;;;;6286756;22;20318;-84
2023/05/12 05:34:47;;;;;;;18.73;9.30;;;13.70;98.30;;;;;;6313083;22;20053;-85
2023/05/12 05:37:21;;;;;;;17.23;9.50;;;13.70;98.30;;;;;;6312236;22;20019;-84
2023/05/12 05:39:59;;;;;;;21.75;12.52;;;13.80;98.20;;;;;;6310354;22;20067;-84
2023/05/12 05:42:30;;;;;;;18.85;10.98;;;13.80;98.20;;;;;;6312466;22;20019;-84
2023/05/12 05:45:05;;;;;;;19.63;11.43;;;13.90;98.20;;;;;;6288085;22;20019;-84
2023/05/12 05:47:33;;;;;;;18.35;10.18;;;14.00;98.10;;;;;;6286344;22;20075;-83
2023/05/12 05:50:03;;;;;;;19.70;10.93;;;14.00;98.10;;;;;;6311795;22;20456;-83
2023/05/12 05:52:37;;;;;;;20.77;11.25;;;14.00;98.00;;;;;;6311482;22;20343;-83
2023/05/12 05:55:08;;;;;;;21.05;12.50;;;14.10;98.00;;;;;;6286666;22;20019;-83
2023/05/12 05:57:41;;;;;;;19.08;11.10;;;14.20;98.00;;;;;;6287248;22;20014;-83
2023/05/12 06:01:07;;;;;;;22.52;12.05;;;14.20;98.00;;;;;;6286793;22;20014;-84
2023/05/12 06:03:45;;;;;;;22.48;11.35;;;14.20;97.90;;;;;;6288600;22;20011;-83
2023/05/12 06:06:21;;;;;;;18.33;11.57;;;14.20;97.90;;;;;;6311693;22;20018;-84
2023/05/12 06:08:54;;;;;;;18.48;10.85;;;14.20;97.90;;;;;;6312854;22;20503;-84
2023/05/12 06:11:34;;;;;;;18.23;11.43;;;14.20;97.90;;;;;;6289565;22;20015;-84
2023/05/12 06:14:16;;;;;;;16.98;10.20;;;14.30;97.90;;;;;;6264975;22;20014;-84
2023/05/12 06:16:56;;;;;;;19.15;10.90;;;14.30;97.90;;;;;;6311472;22;20019;-84
2023/05/12 06:19:46;;;;;;;18.00;9.68;;;14.40;97.90;;;;;;6288810;22;20146;-83
2023/05/12 06:22:21;;;;;;;16.35;9.38;;;14.40;97.90;;;;;;6285899;22;20014;-84
2023/05/12 06:24:51;;;;;;;17.92;10.13;;;14.50;97.80;;;;;;6285952;22;20474;-87
2023/05/12 06:27:22;;;;;;;18.88;10.18;;;14.50;97.70;;;;;;6286990;22;20019;-85
2023/05/12 06:29:50;;;;;;;18.85;11.43;;;14.50;98.00;;;;;;6311718;22;20010;-87
2023/05/12 06:32:18;;;;;;;17.38;10.43;;;14.50;97.70;;;;;;6286924;22;20023;-86
2023/05/12 06:34:45;;;;;;;20.25;11.48;;;14.50;97.70;;;;;;6312644;22;20014;-86
2023/05/12 06:37:12;;;;;;;20.20;11.75;;;14.60;97.60;;;;;;6286978;22;20019;-86
2023/05/12 06:39:39;;;;;;;18.05;11.38;;;14.60;97.60;;;;;;6286035;22;20022;-86
2023/05/12 06:42:06;;;;;;;19.17;11.18;;;14.70;97.60;;;;;;6260976;22;20349;-85
2023/05/12 06:44:40;;;;;;;19.30;11.25;;;14.70;97.60;;;;;;6288142;22;20011;-84
2023/05/12 06:47:08;;;;;;;18.33;10.65;;;14.80;97.50;;;;;;6286936;22;20090;-84
2023/05/12 06:49:37;;;;;;;17.10;10.43;;;14.80;97.50;;;;;;6285807;22;20066;-84
2023/05/12 06:52:08;;;;;;;17.67;10.55;;;14.90;97.40;;;;;;6286526;22;20007;-84
2023/05/12 06:54:35;;;;;;;16.92;10.45;;;15.00;97.30;;;;;;6311246;22;20416;-83
2023/05/12 06:57:03;;;;;;;16.25;10.32;;;15.10;97.30;;;;;;6285687;22;20381;-83
2023/05/12 06:59:31;;;;;;;17.83;10.68;;;15.20;97.20;;;;;;6285616;22;20025;-84
2023/05/12 07:02:02;;;;;;;15.95;10.30;;;15.20;97.20;;;;;;6260801;22;20097;-84
2023/05/12 07:04:32;;;;;;;15.98;9.52;;;15.40;97.10;;;;;;6286223;22;20015;-84
2023/05/12 07:07:05;;;;;;;15.60;9.38;;;15.50;97.00;;;;;;6285725;22;20025;-83
2023/05/12 07:09:41;;;;;;;15.20;10.00;;;15.60;96.80;;;;;;6286204;22;20018;-84
2023/05/12 07:12:11;;;;;;;15.48;8.93;;;15.70;96.70;;;;;;6338253;22;20034;-84
2023/05/12 07:14:38;;;;;;;14.48;8.98;;;15.80;96.70;;;;;;6285349;22;20018;-84
2023/05/12 07:17:07;;;;;;;14.60;9.52;;;16.00;96.50;;;;;;6311061;22;20027;-83
2023/05/12 07:19:46;;;;;;;14.45;8.50;;;16.10;96.40;;;;;;6284202;22;20469;-84
2023/05/12 07:22:17;;;;;;;11.20;7.30;;;16.20;96.30;;;;;;6285271;22;20401;-84
2023/05/12 07:25:02;;;;;;;12.63;8.05;;;16.30;96.20;;;;;;6329290;22;20314;-85
2023/05/12 07:27:33;;;;;;;13.13;8.63;;;16.30;96.10;;;;;;6311927;22;20085;-84
2023/05/12 07:30:48;;;;;;;10.88;7.65;;;16.30;96.00;;;;;;6316337;22;20019;-85
2023/05/12 07:34:26;;;;;;;11.23;7.43;;;16.30;96.00;;;;;;6322694;22;20022;-84
2023/05/12 07:37:20;;;;;;;;;;;16.20;96.00;;;;;;6259460;22;20413;-85
2023/05/12 07:39:50;;;;;;;12.45;7.10;;;16.10;96.10;;;;;;6256834;22;19921;-87
2023/05/12 07:42:17;;;;;;;9.70;6.65;;;16.10;96.10;;;;;;6255827;22;20453;-85
2023/05/12 07:45:01;;;;;;;10.55;6.35;;;16.10;96.10;;;;;;6254588;22;20046;-84
2023/05/12 07:47:38;;;;;;;8.88;5.65;;;16.20;96.10;;;;;;6256643;22;20035;-87
2023/05/12 07:50:06;;;;;;;9.98;6.20;;;16.20;96.10;;;;;;6255110;22;20046;-86
2023/05/12 07:52:33;;;;;;;9.68;5.80;;;16.30;96.00;;;;;;6255131;22;20043;-85
2023/05/12 07:55:00;;;;;;;10.10;6.45;;;16.30;95.90;;;;;;6280082;22;20024;-85
2023/05/12 07:57:33;;;;;;;9.45;5.70;;;16.40;95.90;;;;;;6255004;22;20062;-85
2023/05/12 08:00:00;;;;;;;8.60;5.57;;;16.40;95.80;;;;;;6280130;22;20030;-85
2023/05/12 08:02:28;;;;;;;10.50;6.82;;;16.60;95.80;;;;;;6254558;22;20053;-85
2023/05/12 08:04:55;;;;;;;8.50;5.38;;;16.60;95.50;;;;;;6254665;22;20026;-86
2023/05/12 08:07:22;;;;;;;9.52;5.82;;;16.70;95.40;;;;;;6254818;22;20041;-85
2023/05/12 08:09:53;;;;;;;7.30;4.82;;;16.70;95.40;;;;;;6254480;22;20015;-85
2023/05/12 08:12:39;;;;;;;7.88;4.78;;;16.90;95.40;;;;;;6255680;22;20021;-84
2023/05/12 08:15:32;;;;;;;8.25;5.32;;;17.00;95.30;;;;;;6280048;22;20441;-84
2023/05/12 08:18:08;;;;;;;8.45;5.82;;;17.10;95.00;;;;;;6281628;22;20030;-84
2023/05/12 08:21:47;;;;;;;8.10;4.75;;;17.10;94.80;;;;;;6255607;22;20110;-84
2023/05/12 08:24:36;;;;;;;7.05;4.40;;;17.20;94.70;;;;;;6306817;22;20516;-84
2023/05/12 08:31:53;;;;;;;6.70;3.95;;;17.20;94.60;;;;;;6212600;23;20156;-83
2023/05/12 08:35:47;;;;;;;8.35;4.80;;;17.20;94.70;;;;;;6193892;23;20509;-84
2023/05/12 08:51:53;;;;;;;5.07;2.95;;;17.70;94.00;;;;;;6114684;23;20022;-86
2023/05/12 08:54:41;;;;;;;4.95;3.17;;;17.90;93.70;;;;;;6112492;23;20039;-84
2023/05/12 08:57:24;;;;;;;3.85;2.38;;;18.00;93.30;;;;;;6168077;22;20029;-83
2023/05/12 09:00:00;;;;;;;3.75;2.45;;;18.10;93.20;;;;;;6256070;22;20396;-84
2023/05/12 09:02:33;;;;;;;3.38;2.10;;;18.10;93.00;;;;;;6281418;22;20015;-85
2023/05/12 09:05:17;;;;;;;4.15;2.30;;;18.10;92.90;;;;;;6281228;22;20453;-83
2023/05/12 09:07:55;;;;;;;3.55;2.30;;;18.10;92.80;;;;;;6256870;22;20441;-89
2023/05/12 09:10:28;;;;;;;2.88;1.75;;;18.30;92.60;;;;;;6280938;22;20015;-84
2023/05/12 09:13:28;;;;;;;2.72;1.50;;;18.40;92.50;;;;;;6283362;22;20039;-86
2023/05/12 09:16:03;;;;;;;4.30;2.03;;;18.60;92.30;;;;;;6284875;22;20011;-83
2023/05/12 09:18:52;;;;;;;2.80;1.67;;;18.70;92.20;;;;;;6286100;22;20531;-83
2023/05/12 09:21:40;;;;;;;2.47;1.40;;;18.90;92.00;;;;;;6286603;22;20026;-85
2023/05/12 09:24:13;;;;;;;;;;;18.90;92.00;;;;;;6314158;22;20022;-84
2023/05/12 09:26:51;;;;;;;2.00;1.20;;;18.90;92.00;;;;;;6287093;22;19956;-86
2023/05/12 09:29:21;;;;;;;2.55;1.73;;;18.90;92.00;;;;;;6286718;22;20038;-83
2023/05/12 09:32:00;;;;;;;2.35;1.25;;;19.00;91.80;;;;;;6287869;22;20022;-84
2023/05/12 09:34:50;;;;;;;3.05;1.58;;;18.90;91.60;;;;;;6289905;22;20015;-86
2023/05/12 09:37:20;;;;;;;2.17;1.08;;;19.00;91.60;;;;;;6261582;22;20118;-86
2023/05/12 09:40:04;;;;;;;2.85;1.23;;;19.00;91.50;;;;;;6287840;22;20014;-86
2023/05/12 09:43:06;;;;;;;1.95;1.17;;;19.10;91.30;;;;;;6289090;22;20015;-87
2023/05/12 09:46:16;;;;;;;2.47;1.40;;;19.20;91.20;;;;;;6270044;22;20089;-86
2023/05/12 09:48:59;;;;;;;1.75;1.00;;;19.20;91.20;;;;;;6265554;22;20018;-89
2023/05/12 09:51:31;;;;;;;2.75;1.30;;;19.20;90.80;;;;;;6288072;22;20019;-88
2023/05/12 09:54:08;;;;;;;1.75;1.10;;;19.20;90.70;;;;;;6313325;22;20015;-86
2023/05/12 09:57:48;;;;;;;;;;;;;;;;;;;;;
2023/05/12 10:00:42;;;;;;;2.50;1.23;;;19.20;90.20;;;;;;6312252;22;20041;-86
2023/05/12 10:03:48;;;;;;;1.85;1.10;;;19.20;90.30;;;;;;6316759;22;20097;-86
2023/05/12 10:07:28;;;;;;;2.38;1.20;;;19.20;90.30;;;;;;6268983;22;20015;-86
2023/05/12 10:16:23;;;;;;;2.30;0.80;;;19.50;89.80;;;;;;6339673;22;20068;-85
2023/05/12 10:18:55;;;;;;;1.58;0.82;;;19.60;89.30;;;;;;6312529;22;20014;-84
2023/05/12 10:21:25;;;;;;;2.10;1.00;;;19.60;89.20;;;;;;6312674;22;20394;-85
2023/05/12 10:24:08;;;;;;;1.48;0.77;;;19.60;89.00;;;;;;6286355;22;20015;-85
2023/05/12 10:26:38;;;;;;;2.95;1.10;;;19.70;88.80;;;;;;6285766;22;20046;-86
2023/05/12 10:29:28;;;;;;;1.20;0.88;;;19.80;88.20;;;;;;6289270;22;20019;-85
2023/05/12 10:32:00;;;;;;;2.55;0.80;;;19.80;88.20;;;;;;6286746;22;20015;-87
2023/05/12 10:34:38;;;;;;;1.67;0.65;;;19.90;87.80;;;;;;6286422;22;20052;-87
2023/05/12 10:37:09;;;;;;;2.10;0.98;;;20.10;87.40;;;;;;6286593;22;20023;-87
2023/05/12 10:39:51;;;;;;;2.28;1.13;;;20.10;87.00;;;;;;6287692;22;20469;-85
2023/05/12 10:42:30;;;;;;;2.28;0.90;;;20.30;86.60;;;;;;6312437;22;20089;-85
2023/05/12 10:45:19;;;;;;;1.63;0.95;;;20.40;86.50;;;;;;6313223;22;20011;-88
2023/05/12 10:48:05;;;;;;;1.67;0.90;;;20.40;85.70;;;;;;6264082;22;20018;-90
2023/05/12 10:50:54;;;;;;;1.55;0.70;;;20.40;85.80;;;;;;6287360;22;20011;-88
2023/05/12 10:53:38;;;;;;;1.42;0.85;;;20.40;85.90;;;;;;6288192;22;20436;-88
2023/05/12 10:56:43;;;;;;;1.05;0.70;;;20.60;85.30;;;;;;6287447;22;20025;-86
2023/05/12 10:59:22;;;;;;;1.42;0.85;;;20.90;84.90;;;;;;6285651;22;20068;-86
2023/05/12 11:02:29;;;;;;;2.15;0.85;;;21.20;84.30;;;;;;6312044;22;20053;-85
2023/05/12 11:05:04;;;;;;;1.58;0.80;;;21.50;83.50;;;;;;6297820;22;20026;-86
2023/05/12 11:07:33;;;;;;;2.22;0.98;;;21.60;82.20;;;;;;6286151;22;20015;-85
2023/05/12 11:10:03;;;;;;;2.38;1.02;;;21.70;81.90;;;;;;6261039;22;20023;-88
2023/05/12 11:13:07;;;;;;;1.60;0.98;;;21.90;81.10;;;;;;6286846;22;20019;-92
2023/05/12 11:16:03;;;;;;;1.90;1.05;;;22.00;80.30;;;;;;6315354;22;20090;-92
2023/05/12 11:18:45;;;;;;;1.48;0.80;;;21.80;80.10;;;;;;6312320;22;20383;-92
2023/05/12 11:21:29;;;;;;;2.00;1.02;;;21.80;80.00;;;;;;6287299;22;20391;-86
2023/05/12 11:24:00;;;;;;;2.30;0.98;;;21.70;78.90;;;;;;6286596;22;20381;-87
2023/05/12 11:26:29;;;;;;;2.47;0.82;;;21.70;78.90;;;;;;6286606;22;20022;-91
2023/05/12 11:29:03;;;;;;;1.88;1.05;;;21.60;79.20;;;;;;6286546;22;20098;-91
2023/05/12 11:31:33;;;;;;;1.77;0.75;;;21.70;78.60;;;;;;6285932;22;20011;-87
2023/05/12 11:34:06;;;;;;;1.70;0.80;;;21.90;78.40;;;;;;6286929;22;20019;-91
2023/05/12 11:36:41;;;;;;;1.60;0.80;;;22.10;78.00;;;;;;6288551;22;20344;-90
2023/05/12 11:39:15;;;;;;;2.00;0.95;;;22.20;77.70;;;;;;6287211;22;20053;-89
2023/05/12 11:41:43;;;;;;;1.60;0.80;;;22.30;77.30;;;;;;6286385;22;20023;-90
2023/05/12 11:44:17;;;;;;;2.40;0.90;;;22.30;77.40;;;;;;6286683;22;20023;-91
2023/05/12 11:46:55;;;;;;;1.90;1.10;;;22.40;77.20;;;;;;6286439;22;20018;-84
2023/05/12 11:49:22;;;;;;;1.33;0.80;;;22.60;76.90;;;;;;6310947;22;20041;-82
2023/05/12 11:51:51;;;;;;;2.10;0.80;;;22.90;76.00;;;;;;6285576;22;20511;-83
2023/05/12 11:54:19;;;;;;;1.25;0.90;;;23.00;75.60;;;;;;6310455;22;20043;-84
2023/05/12 11:56:50;;;;;;;3.58;0.93;;;23.30;75.30;;;;;;6310670;22;20064;-83
2023/05/12 11:59:34;;;;;;;1.85;0.90;;;23.50;74.20;;;;;;6338228;22;20019;-83
2023/05/12 12:02:23;;;;;;;1.90;1.08;;;23.80;73.40;;;;;;6250971;22;20011;-84
2023/05/12 12:04:50;;;;;;;1.40;0.73;;;24.10;72.80;;;;;;6285111;22;20011;-83
2023/05/12 12:07:31;;;;;;;1.98;0.93;;;24.30;72.10;;;;;;6260467;22;20045;-84
2023/05/12 12:10:10;;;;;;;1.00;0.63;;;24.70;71.00;;;;;;6287092;22;20045;-83
2023/05/12 12:12:38;;;;;;;2.13;1.02;;;25.10;70.40;;;;;;6286815;22;20031;-84
2023/05/12 12:15:11;;;;;;;1.70;0.90;;;25.30;70.10;;;;;;6288066;22;20022;-84
2023/05/12 12:17:39;;;;;;;0.80;0.52;;;25.50;69.50;;;;;;6263532;22;20029;-83
2023/05/12 12:20:07;;;;;;;1.52;0.70;;;25.40;69.00;;;;;;6281949;22;20379;-85
2023/05/12 12:22:35;;;;;;;1.58;0.80;;;25.40;68.80;;;;;;6256934;22;20326;-87
2023/05/12 12:25:03;;;;;;;1.42;0.80;;;25.20;69.20;;;;;;6256402;22;20042;-85
2023/05/12 12:27:31;;;;;;;1.15;0.70;;;25.00;69.60;;;;;;6281806;22;20449;-84
2023/05/12 12:29:58;;;;;;;1.52;0.70;;;24.80;70.00;;;;;;6256435;22;20512;-86
2023/05/12 12:32:34;;;;;;;1.63;0.90;;;24.60;69.90;;;;;;6257236;22;20011;-84
2023/05/12 12:35:10;;;;;;;1.67;0.75;;;24.50;69.20;;;;;;6257165;22;20018;-87
2023/05/12 12:37:49;;;;;;;;;;;;;;;;;;;;;
2023/05/12 12:41:26;;;;;;;1.73;1.02;;;24.20;68.50;;;;;;6250278;22;20014;-85
2023/05/12 12:44:29;;;;;;;1.50;1.08;;;24.10;68.80;;;;;;6282848;22;20461;-91
2023/05/12 12:47:26;;;;;;;1.45;1.00;;;24.00;68.00;;;;;;6246189;22;20377;-91
2023/05/12 12:50:21;;;;;;;;;;;;;;;;;;;;;
2023/05/12 12:52:55;;;;;;;2.08;1.10;;;24.10;68.00;;;;;;6307626;22;20015;-88
2023/05/12 12:55:26;;;;;;;1.60;0.98;;;24.20;67.90;;;;;;6232792;22;20041;-85
2023/05/12 12:57:53;;;;;;;1.55;0.93;;;24.30;67.70;;;;;;6282013;22;20015;-86
2023/05/12 13:00:23;;;;;;;1.50;0.90;;;24.50;67.40;;;;;;6256523;22;20468;-86
2023/05/12 13:02:51;;;;;;;2.03;0.88;;;24.60;67.00;;;;;;6281921;22;20023;-86
2023/05/12 13:05:18;;;;;;;1.42;0.90;;;24.50;67.20;;;;;;6255733;22;20023;-85
2023/05/12 13:07:46;;;;;;;1.38;0.70;;;24.60;67.00;;;;;;6256020;22;20019;-85
2023/05/12 13:14:16;;;;;;;1.88;0.75;;;24.60;66.20;;;;;;6281865;22;20088;-85
2023/05/12 13:16:44;;;;;;;1.58;1.00;;;24.60;66.40;;;;;;6284084;22;20023;-85
2023/05/12 13:19:23;;;;;;;1.85;1.00;;;24.70;66.60;;;;;;6256775;22;20019;-85
2023/05/12 13:21:50;;;;;;;2.00;1.00;;;24.80;65.50;;;;;;6230987;22;20019;-84
2023/05/12 13:24:27;;;;;;;3.25;1.55;;;24.70;65.10;;;;;;6280599;22;20019;-85
2023/05/12 13:27:49;;;;;;;2.70;1.27;;;24.70;64.50;;;;;;6272497;22;20019;-91
2023/05/12 13:30:16;;;;;;;2.15;1.30;;;24.80;63.90;;;;;;6282047;22;20030;-88
2023/05/12 13:32:53;;;;;;;2.65;1.20;;;25.00;63.90;;;;;;6257194;22;20011;-88
2023/05/12 13:35:22;;;;;;;2.30;1.17;;;25.00;63.00;;;;;;6282237;22;20011;-85
2023/05/12 13:37:49;;;;;;;2.42;1.05;;;25.20;62.40;;;;;;6256071;22;20065;-86
2023/05/12 13:40:17;;;;;;;1.30;1.00;;;25.40;62.40;;;;;;6256544;22;20337;-87
2023/05/12 13:42:44;;;;;;;2.50;1.20;;;25.50;61.90;;;;;;6255891;22;20110;-87
2023/05/12 13:45:11;;;;;;;2.00;1.10;;;25.60;61.10;;;;;;6230809;22;20023;-87
2023/05/12 13:47:39;;;;;;;2.03;1.10;;;25.60;61.40;;;;;;6281818;22;20023;-89
2023/05/12 13:50:18;;;;;;;2.03;1.00;;;25.90;61.10;;;;;;6281491;22;20019;-86
2023/05/12 13:52:46;;;;;;;1.98;0.98;;;26.50;60.60;;;;;;6255918;22;20011;-87
2023/05/12 13:55:13;;;;;;;1.98;1.00;;;27.20;59.80;;;;;;6281181;22;20019;-89